createdAt,value
2022-08-03T00:01:41.005Z,39.42
2022-08-03T00:04:09.635Z,40.11
2022-08-03T00:06:37.470Z,39.86
2022-08-03T00:09:05.998Z,39.81
2022-08-03T00:11:33.493Z,39.91
2022-08-03T00:14:00.993Z,39.52
2022-08-03T00:16:29.893Z,39.18
2022-08-03T00:18:57.323Z,40.22
2022-08-03T00:21:24.766Z,39.72
2022-08-03T00:23:52.938Z,39.45
2022-08-03T00:26:20.633Z,39.72
2022-08-03T00:28:48.051Z,39.49
2022-08-03T00:31:15.765Z,39.73
2022-08-03T00:33:59.240Z,40.10
2022-08-03T00:36:30.703Z,40.97
2022-08-03T00:38:58.300Z,41.61
2022-08-03T00:41:25.716Z,41.36
2022-08-03T00:43:53.143Z,41.44
2022-08-03T00:46:21.900Z,41.66
2022-08-03T00:48:51.854Z,41.16
2022-08-03T00:51:20.146Z,41.69
2022-08-03T00:53:47.834Z,41.35
2022-08-03T00:56:15.776Z,41.91
2022-08-03T00:58:46.020Z,42.29
2022-08-03T01:01:14.233Z,42.19
2022-08-03T01:03:42.018Z,42.62
2022-08-03T01:06:18.902Z,41.89
2022-08-03T01:08:51.809Z,40.19
2022-08-03T01:11:29.120Z,38.92
2022-08-03T01:14:18.265Z,38.61
2022-08-03T01:16:56.294Z,37.40
2022-08-03T01:19:45.478Z,39.31
2022-08-03T01:22:37.312Z,37.08
2022-08-03T01:25:11.636Z,38.87
2022-08-03T01:27:51.719Z,39.92
2022-08-03T01:30:21.115Z,40.96
2022-08-03T01:33:01.392Z,41.15
2022-08-03T01:35:34.567Z,41.99
2022-08-03T01:38:10.207Z,41.35
2022-08-03T01:40:40.100Z,41.85
2022-08-03T01:43:10.872Z,42.14
2022-08-03T01:45:40.417Z,42.29
2022-08-03T01:48:08.277Z,41.47
2022-08-03T01:50:36.508Z,42.54
2022-08-03T01:53:04.481Z,41.65
2022-08-03T01:55:33.284Z,42.36
2022-08-03T01:58:05.800Z,41.99
2022-08-03T02:00:36.955Z,42.06
2022-08-03T02:03:07.388Z,43.44
2022-08-03T02:05:36.221Z,41.74
2022-08-03T02:08:07.961Z,41.32
2022-08-03T02:10:36.494Z,41.32
2022-08-03T02:13:07.174Z,41.61
2022-08-03T02:15:37.085Z,41.95
2022-08-03T02:18:08.948Z,41.69
2022-08-03T02:20:38.571Z,42.04
2022-08-03T02:23:05.855Z,42.44
2022-08-03T02:25:35.064Z,42.40
2022-08-03T02:28:08.453Z,42.12
2022-08-03T02:30:39.087Z,42.21
2022-08-03T02:33:12.360Z,41.47
2022-08-03T02:35:40.706Z,41.95
2022-08-03T02:38:10.241Z,41.35
2022-08-03T02:40:40.963Z,42.07
2022-08-03T02:43:12.100Z,42.11
2022-08-03T02:45:45.669Z,42.24
2022-08-03T02:48:17.534Z,42.17
2022-08-03T02:50:45.940Z,42.47
2022-08-03T02:53:14.271Z,41.91
2022-08-03T02:55:45.635Z,41.59
2022-08-03T02:58:14.158Z,42.77
2022-08-03T03:00:44.931Z,42.64
2022-08-03T03:03:13.174Z,42.30
2022-08-03T03:05:56.453Z,42.91
2022-08-03T03:08:27.500Z,42.89
2022-08-03T03:10:58.331Z,42.23
2022-08-03T03:13:27.144Z,42.80
2022-08-03T03:15:56.764Z,41.73
2022-08-03T03:18:24.218Z,42.79
2022-08-03T03:20:54.155Z,42.92
2022-08-03T03:23:22.786Z,43.75
2022-08-03T03:25:51.530Z,42.70
2022-08-03T03:28:19.488Z,42.72
2022-08-03T03:30:53.024Z,43.60
2022-08-03T03:33:21.199Z,43.07
2022-08-03T03:35:49.179Z,43.05
2022-08-03T03:38:18.341Z,43.46
2022-08-03T03:40:46.474Z,43.03
2022-08-03T03:43:14.001Z,43.12
2022-08-03T03:45:42.071Z,43.36
2022-08-03T03:48:09.790Z,43.55
2022-08-03T03:50:37.698Z,43.59
2022-08-03T03:53:05.271Z,43.21
2022-08-03T03:56:01.862Z,43.53
2022-08-03T03:58:25.866Z,43.23
2022-08-03T04:00:53.290Z,43.01
2022-08-03T04:03:20.748Z,43.06
2022-08-03T04:05:48.273Z,42.96
2022-08-03T04:08:17.854Z,42.51
2022-08-03T04:10:48.614Z,42.03
2022-08-03T04:13:18.478Z,42.19
2022-08-03T04:15:47.915Z,42.46
2022-08-03T04:18:17.240Z,42.42
2022-08-03T04:20:47.815Z,41.39
2022-08-03T04:23:19.870Z,41.54
2022-08-03T04:25:51.720Z,41.08
2022-08-03T04:28:30.343Z,40.86
2022-08-03T04:31:01.017Z,42.20
2022-08-03T04:33:31.015Z,42.23
2022-08-03T04:36:03.727Z,41.54
2022-08-03T04:38:33.337Z,41.46
2022-08-03T04:41:02.925Z,41.32
2022-08-03T04:43:32.855Z,41.17
2022-08-03T04:46:01.156Z,40.90
2022-08-03T04:48:29.309Z,41.00
2022-08-03T04:50:57.226Z,41.32
2022-08-03T04:53:24.737Z,41.71
2022-08-03T04:55:52.215Z,42.40
2022-08-03T04:58:21.052Z,41.44
2022-08-03T05:00:48.433Z,40.80
2022-08-03T05:03:20.048Z,41.42
2022-08-03T05:05:52.044Z,41.40
2022-08-03T05:08:20.521Z,40.10
2022-08-03T05:10:55.397Z,41.03
2022-08-03T05:13:27.771Z,40.97
2022-08-03T05:15:55.176Z,40.89
2022-08-03T05:18:22.571Z,41.13
2022-08-03T05:20:49.986Z,39.88
2022-08-03T05:23:17.433Z,40.42
2022-08-03T05:25:49.718Z,39.38
2022-08-03T05:28:17.591Z,40.55
2022-08-03T05:30:46.431Z,40.80
2022-08-03T05:33:13.851Z,40.24
2022-08-03T05:36:01.149Z,40.68
2022-08-03T05:38:34.040Z,40.21
2022-08-03T05:41:20.473Z,39.99
2022-08-03T05:43:49.774Z,39.79
2022-08-03T05:46:18.951Z,39.77
2022-08-03T05:48:46.437Z,39.91
2022-08-03T05:51:13.994Z,39.32
2022-08-03T05:53:41.666Z,37.95
2022-08-03T05:56:13.800Z,39.72
2022-08-03T05:58:43.917Z,39.49
2022-08-03T06:01:11.365Z,40.56
2022-08-03T06:03:40.278Z,39.63
2022-08-03T06:06:07.771Z,40.27
2022-08-03T06:08:35.689Z,40.62
2022-08-03T06:11:03.255Z,39.86
2022-08-03T06:13:30.760Z,39.17
2022-08-03T06:15:58.226Z,40.90
2022-08-03T06:18:25.728Z,40.18
2022-08-03T06:20:55.016Z,39.53
2022-08-03T06:23:23.852Z,39.57
2022-08-03T06:26:10.254Z,39.67
2022-08-03T06:28:51.436Z,38.63
2022-08-03T06:31:21.319Z,38.43
2022-08-03T06:34:32.503Z,39.44
2022-08-03T06:36:37.556Z,38.93
2022-08-03T06:39:05.314Z,39.05
2022-08-03T06:41:37.602Z,38.19
2022-08-03T06:44:08.979Z,38.73
2022-08-03T06:46:37.850Z,37.95
2022-08-03T06:49:05.335Z,38.55
2022-08-03T06:52:03.426Z,38.70
2022-08-03T06:54:21.624Z,38.53
2022-08-03T06:56:48.986Z,38.49
2022-08-03T07:00:09.141Z,39.82
2022-08-03T07:02:03.855Z,38.01
2022-08-03T07:04:31.303Z,38.23
2022-08-03T07:06:58.691Z,39.00
2022-08-03T07:09:27.538Z,38.17
2022-08-03T07:11:55.137Z,37.18
2022-08-03T07:14:22.519Z,37.17
2022-08-03T07:16:50.019Z,37.38
2022-08-03T07:19:17.425Z,37.54
2022-08-03T07:21:44.815Z,37.18
2022-08-03T07:24:12.179Z,36.40
2022-08-03T07:26:41.017Z,36.96
2022-08-03T07:29:11.768Z,36.24
2022-08-03T07:31:42.851Z,36.75
2022-08-03T07:34:10.322Z,36.46
2022-08-03T07:36:37.757Z,37.71
2022-08-03T07:39:17.362Z,36.89
2022-08-03T07:41:46.847Z,36.75
2022-08-03T07:44:14.246Z,37.07
2022-08-03T07:46:41.612Z,36.76
2022-08-03T07:49:09.094Z,36.87
2022-08-03T07:51:36.767Z,37.10
2022-08-03T07:54:04.395Z,36.91
2022-08-03T07:56:32.153Z,37.07
2022-08-03T07:59:01.112Z,35.24
2022-08-03T08:01:28.571Z,37.43
2022-08-03T08:03:55.987Z,37.47
2022-08-03T08:06:23.376Z,38.63
2022-08-03T08:08:50.773Z,37.66
2022-08-03T08:11:18.158Z,35.91
2022-08-03T08:13:45.531Z,35.66
2022-08-03T08:16:14.334Z,37.03
2022-08-03T08:18:41.713Z,35.99
2022-08-03T08:21:09.073Z,35.31
2022-08-03T08:23:43.530Z,36.36
2022-08-03T08:26:12.379Z,35.98
2022-08-03T08:28:39.861Z,35.19
2022-08-03T08:31:07.315Z,34.72
2022-08-03T08:34:03.266Z,34.82
2022-08-03T08:36:24.063Z,35.41
2022-08-03T08:38:51.665Z,35.20
2022-08-03T08:41:19.096Z,34.02
2022-08-03T08:43:46.451Z,35.47
2022-08-03T08:46:23.286Z,35.62
2022-08-03T08:48:53.931Z,34.68
2022-08-03T08:51:22.764Z,34.42
2022-08-03T08:53:52.646Z,35.68
2022-08-03T08:56:23.016Z,34.99
2022-08-03T08:58:54.317Z,35.02
2022-08-03T09:01:22.039Z,34.08
2022-08-03T09:03:49.515Z,33.81
2022-08-03T09:06:18.348Z,34.20
2022-08-03T09:08:45.742Z,35.12
2022-08-03T09:11:13.158Z,34.82
2022-08-03T09:13:40.581Z,34.59
2022-08-03T09:16:13.512Z,34.38
2022-08-03T09:18:41.796Z,35.36
2022-08-03T09:21:37.529Z,34.56
2022-08-03T09:24:13.019Z,34.73
2022-08-03T09:26:51.926Z,34.48
2022-08-03T09:29:21.562Z,34.32
2022-08-03T09:31:48.939Z,34.41
2022-08-03T09:34:18.009Z,33.43
2022-08-03T09:36:48.251Z,34.27
2022-08-03T09:39:17.668Z,34.38
2022-08-03T09:41:46.830Z,34.88
2022-08-03T09:44:24.829Z,34.61
2022-08-03T09:46:54.458Z,35.14
2022-08-03T09:49:22.310Z,34.17
2022-08-03T09:52:32.782Z,34.45
2022-08-03T09:54:38.816Z,33.76
2022-08-03T09:57:06.355Z,34.20
2022-08-03T09:59:34.765Z,33.95
2022-08-03T10:02:02.369Z,34.83
2022-08-03T10:04:29.885Z,34.46
2022-08-03T10:07:06.700Z,34.68
2022-08-03T10:09:34.206Z,33.40
2022-08-03T10:12:09.173Z,32.63
2022-08-03T10:14:38.256Z,33.17
2022-08-03T10:17:05.739Z,33.27
2022-08-03T10:19:33.985Z,33.15
2022-08-03T10:22:07.202Z,33.02
2022-08-03T10:24:35.967Z,33.78
2022-08-03T10:27:05.885Z,32.62
2022-08-03T10:29:37.990Z,32.28
2022-08-03T10:32:15.112Z,32.21
2022-08-03T10:34:45.188Z,32.77
2022-08-03T10:37:17.277Z,32.41
2022-08-03T10:39:45.442Z,32.66
2022-08-03T10:42:14.878Z,32.21
2022-08-03T10:44:42.963Z,32.69
2022-08-03T10:47:11.551Z,32.94
2022-08-03T10:49:40.253Z,31.70
2022-08-03T10:52:13.183Z,32.97
2022-08-03T10:54:57.185Z,33.00
2022-08-03T10:57:52.573Z,31.44
2022-08-03T11:00:27.622Z,30.82
2022-08-03T11:03:09.744Z,31.85
2022-08-03T11:05:40.448Z,32.19
2022-08-03T11:08:27.230Z,32.53
2022-08-03T11:10:58.672Z,33.23
2022-08-03T11:13:27.312Z,32.05
2022-08-03T11:16:00.175Z,33.42
2022-08-03T11:18:30.316Z,32.67
2022-08-03T11:20:58.824Z,31.80
2022-08-03T11:24:03.572Z,31.73
2022-08-03T11:26:33.860Z,32.00
2022-08-03T11:29:28.445Z,31.41
2022-08-03T11:31:56.106Z,31.59
2022-08-03T11:34:23.776Z,30.91
2022-08-03T11:37:25.188Z,32.26
2022-08-03T11:39:55.435Z,32.19
2022-08-03T11:42:43.830Z,31.71
2022-08-03T11:45:12.626Z,32.28
2022-08-03T11:47:51.082Z,32.22
2022-08-03T11:50:19.825Z,32.16
2022-08-03T11:52:48.226Z,31.75
2022-08-03T11:55:17.794Z,31.90
2022-08-03T11:59:17.516Z,31.86
2022-08-03T12:00:34.128Z,32.18
2022-08-03T12:03:04.420Z,32.48
2022-08-03T12:05:36.587Z,31.48
2022-08-03T12:08:06.726Z,30.62
2022-08-03T12:10:34.965Z,32.41
2022-08-03T12:13:05.962Z,31.15
2022-08-03T12:15:55.172Z,32.45
2022-08-03T12:18:23.798Z,31.61
2022-08-03T12:20:52.486Z,31.96
2022-08-03T12:23:20.642Z,31.59
2022-08-03T12:25:49.532Z,32.12
2022-08-03T12:28:36.163Z,32.23
2022-08-03T12:31:06.777Z,31.11
2022-08-03T12:34:01.081Z,32.99
2022-08-03T12:36:30.824Z,30.75
2022-08-03T12:38:59.452Z,32.87
2022-08-03T12:41:34.418Z,31.72
2022-08-03T12:44:04.071Z,30.95
2022-08-03T12:46:32.068Z,31.79
2022-08-03T12:49:05.309Z,31.63
2022-08-03T12:51:34.613Z,31.53
2022-08-03T12:54:02.703Z,31.39
2022-08-03T12:56:30.302Z,31.51
2022-08-03T12:58:57.730Z,30.81
2022-08-03T13:01:26.864Z,30.80
2022-08-03T13:03:54.399Z,30.53
2022-08-03T13:06:24.475Z,30.66
2022-08-03T13:09:03.637Z,31.01
2022-08-03T13:11:59.001Z,30.91
2022-08-03T13:14:19.941Z,30.68
2022-08-03T13:16:49.512Z,31.19
2022-08-03T13:19:16.988Z,31.62
2022-08-03T13:21:53.864Z,31.17
2022-08-03T13:24:31.844Z,30.95
2022-08-03T13:26:59.456Z,31.55
2022-08-03T13:29:26.898Z,31.40
2022-08-03T13:31:55.782Z,32.79
2022-08-03T13:34:24.128Z,31.21
2022-08-03T13:37:09.270Z,32.09
2022-08-03T13:39:58.175Z,30.42
2022-08-03T13:42:24.965Z,30.18
2022-08-03T13:44:52.484Z,30.77
2022-08-03T13:47:21.774Z,30.59
2022-08-03T13:49:59.554Z,30.12
2022-08-03T13:52:28.113Z,30.23
2022-08-03T13:54:55.577Z,31.18
2022-08-03T13:58:03.293Z,30.47
2022-08-03T14:00:11.835Z,31.25
2022-08-03T14:02:40.759Z,30.19
2022-08-03T14:05:08.730Z,30.69
2022-08-03T14:07:36.116Z,30.93
2022-08-03T14:10:03.628Z,30.16
2022-08-03T14:12:31.022Z,30.63
2022-08-03T14:15:01.435Z,31.72
2022-08-03T14:17:42.054Z,30.39
2022-08-03T14:20:36.609Z,30.39
2022-08-03T14:23:01.227Z,31.22
2022-08-03T14:25:28.677Z,31.17
2022-08-03T14:27:56.049Z,31.29
2022-08-03T14:30:23.487Z,31.15
2022-08-03T14:32:50.925Z,31.08
2022-08-03T14:35:19.836Z,31.02
2022-08-03T14:37:47.213Z,30.68
2022-08-03T14:40:14.690Z,30.74
2022-08-03T14:42:42.095Z,30.10
2022-08-03T14:45:20.533Z,31.03
2022-08-03T14:50:34.123Z,31.01
2022-08-03T14:50:43.204Z,31.98
2022-08-03T14:53:14.541Z,31.92
2022-08-03T14:55:49.674Z,31.84
2022-08-03T14:58:20.636Z,32.62
2022-08-03T15:00:50.352Z,31.93
2022-08-03T15:03:17.910Z,31.43
2022-08-03T15:05:47.280Z,32.52
2022-08-03T15:08:14.684Z,31.84
2022-08-03T15:10:44.779Z,31.87
2022-08-03T15:13:13.289Z,32.45
2022-08-03T15:15:40.802Z,31.82
2022-08-03T15:18:08.681Z,32.07
2022-08-03T15:20:44.366Z,32.35
2022-08-03T15:23:15.555Z,32.62
2022-08-03T15:26:30.292Z,33.16
2022-08-03T15:28:31.361Z,32.57
2022-08-03T15:30:58.794Z,32.77
2022-08-03T15:33:26.293Z,33.32
2022-08-03T15:35:53.759Z,33.53
2022-08-03T15:38:22.622Z,33.87
2022-08-03T15:40:53.448Z,33.89
2022-08-03T15:43:21.104Z,33.25
2022-08-03T15:45:51.909Z,33.77
2022-08-03T15:48:26.671Z,33.38
2022-08-03T15:50:54.117Z,33.56
2022-08-03T15:53:22.986Z,33.40
2022-08-03T15:55:50.693Z,33.40
2022-08-03T15:59:09.686Z,33.58
2022-08-03T16:01:06.818Z,33.68
2022-08-03T16:03:34.496Z,33.41
2022-08-03T16:06:02.425Z,33.30
2022-08-03T16:08:31.580Z,33.16
2022-08-03T16:10:59.579Z,33.24
2022-08-03T16:14:14.119Z,33.78
2022-08-03T16:16:15.196Z,33.26
2022-08-03T16:18:42.584Z,33.35
2022-08-03T16:21:11.827Z,33.20
2022-08-03T16:23:47.309Z,33.62
2022-08-03T16:26:15.007Z,33.62
2022-08-03T16:28:42.417Z,34.07
2022-08-03T16:31:09.820Z,33.89
2022-08-03T16:33:37.219Z,33.56
2022-08-03T16:36:04.796Z,34.23
2022-08-03T16:38:32.319Z,33.66
2022-08-03T16:41:01.146Z,33.90
2022-08-03T16:43:28.522Z,34.14
2022-08-03T16:45:55.951Z,34.12
2022-08-03T16:48:23.349Z,33.65
2022-08-03T16:50:50.750Z,33.65
2022-08-03T16:53:33.063Z,34.69
2022-08-03T16:56:10.717Z,34.79
2022-08-03T16:58:42.470Z,34.56
2022-08-03T17:01:22.021Z,34.70
2022-08-03T17:04:02.699Z,34.78
2022-08-03T17:06:35.003Z,34.72
2022-08-03T17:09:09.017Z,34.39
2022-08-03T17:11:46.840Z,35.12
2022-08-03T17:14:16.096Z,34.74
2022-08-03T17:16:54.570Z,34.83
2022-08-03T17:19:23.757Z,34.80
2022-08-03T17:21:57.140Z,34.63
2022-08-03T17:24:31.285Z,35.42
2022-08-03T17:27:02.609Z,35.45
2022-08-03T17:29:32.682Z,35.57
2022-08-03T17:32:01.010Z,35.52
2022-08-03T17:34:29.107Z,35.15
2022-08-03T17:37:05.697Z,35.53
2022-08-03T17:39:57.676Z,34.95
2022-08-03T17:42:29.955Z,35.63
2022-08-03T17:45:02.072Z,35.21
2022-08-03T17:47:42.179Z,35.53
2022-08-03T17:50:25.177Z,35.46
2022-08-03T17:53:07.138Z,35.60
2022-08-03T17:55:57.228Z,35.78
2022-08-03T17:58:52.570Z,36.31
2022-08-03T18:02:02.076Z,36.42
2022-08-03T18:04:19.785Z,36.27
2022-08-03T18:06:58.960Z,36.05
2022-08-03T18:10:03.771Z,36.33
2022-08-03T18:12:25.349Z,36.10
2022-08-03T18:15:01.504Z,37.28
2022-08-03T18:17:55.285Z,36.52
2022-08-03T18:20:34.299Z,36.25
2022-08-03T18:23:10.934Z,36.94
2022-08-03T18:25:58.226Z,36.57
2022-08-03T18:28:27.245Z,36.67
2022-08-03T18:30:57.688Z,36.91
2022-08-03T18:34:17.504Z,36.52
2022-08-03T18:36:18.176Z,36.86
2022-08-03T18:38:49.747Z,37.43
2022-08-03T18:41:32.818Z,36.90
2022-08-03T18:47:07.284Z,37.56
2022-08-03T18:50:00.773Z,37.61
2022-08-03T18:55:32.980Z,37.88
2022-08-03T18:58:09.763Z,37.64
2022-08-03T19:00:54.654Z,37.34
2022-08-03T19:03:41.506Z,38.13
2022-08-03T19:06:19.985Z,37.71
2022-08-03T19:08:53.539Z,37.59
2022-08-03T19:11:28.127Z,37.41
2022-08-03T19:13:58.618Z,37.55
2022-08-03T19:16:32.354Z,38.22
2022-08-03T19:19:03.509Z,37.52
2022-08-03T19:21:35.042Z,37.56
2022-08-03T19:24:09.493Z,37.66
2022-08-03T19:26:39.402Z,37.90
2022-08-03T19:29:10.725Z,38.23
2022-08-03T19:31:59.199Z,38.56
2022-08-03T19:34:30.182Z,38.51
2022-08-03T19:36:58.127Z,38.84
2022-08-03T19:39:26.299Z,38.47
2022-08-03T19:41:58.483Z,37.92
2022-08-03T19:44:38.682Z,38.08
2022-08-03T19:47:10.860Z,37.91
2022-08-03T19:49:57.061Z,38.63
2022-08-03T19:52:36.540Z,38.46
2022-08-03T19:55:07.919Z,39.20
2022-08-03T19:57:42.452Z,38.97
2022-08-03T20:00:11.095Z,39.08
2022-08-03T20:02:38.934Z,39.26
2022-08-03T20:05:15.049Z,37.96
2022-08-03T20:07:48.245Z,38.61
2022-08-03T20:10:18.077Z,39.31
2022-08-03T20:12:46.184Z,39.40
2022-08-03T20:15:13.635Z,39.78
2022-08-03T20:17:54.454Z,39.33
2022-08-03T20:20:28.129Z,38.54
2022-08-03T20:22:58.551Z,39.30
2022-08-03T20:25:38.579Z,38.99
2022-08-03T20:28:14.278Z,39.19
2022-08-03T20:30:44.562Z,38.80
2022-08-03T20:33:18.554Z,38.96
2022-08-03T20:35:48.824Z,38.97
2022-08-03T20:38:18.529Z,39.94
2022-08-03T20:40:47.273Z,39.40
2022-08-03T20:43:14.832Z,39.16
2022-08-03T20:46:00.770Z,38.51
2022-08-03T20:48:32.328Z,38.21
2022-08-03T20:51:01.319Z,37.58
2022-08-03T20:53:56.861Z,38.36
2022-08-03T20:56:16.719Z,38.40
2022-08-03T20:58:50.273Z,38.11
2022-08-03T21:01:27.738Z,38.22
2022-08-03T21:04:07.081Z,37.92
2022-08-03T21:06:42.580Z,38.36
2022-08-03T21:09:18.285Z,37.77
2022-08-03T21:11:51.959Z,38.15
2022-08-03T21:12:59.026Z,37.27
2022-08-03T21:13:00.668Z,37.29
2022-08-03T21:14:23.671Z,37.90
2022-08-03T21:16:51.864Z,38.71
2022-08-03T21:19:21.731Z,38.43
2022-08-03T21:21:52.099Z,37.82
2022-08-03T21:24:22.473Z,38.44
2022-08-03T21:26:53.134Z,38.16
2022-08-03T21:29:21.290Z,37.78
2022-08-03T21:31:49.513Z,38.75
2022-08-03T21:34:17.948Z,38.83
2022-08-03T21:36:45.355Z,37.74
2022-08-03T21:39:14.351Z,38.64
2022-08-03T21:41:41.815Z,38.13
2022-08-03T21:44:09.435Z,38.24
2022-08-03T21:46:39.218Z,38.46
2022-08-03T21:50:06.953Z,38.60
2022-08-03T21:51:58.314Z,37.84
2022-08-03T21:54:33.519Z,38.03
2022-08-03T21:57:04.400Z,38.32
2022-08-03T21:59:35.623Z,38.06
2022-08-03T22:02:03.819Z,38.92
2022-08-03T22:04:55.176Z,38.56
2022-08-03T22:07:22.721Z,38.58
2022-08-03T22:09:52.023Z,38.55
2022-08-03T22:12:22.986Z,38.44
2022-08-03T22:15:01.306Z,38.58
2022-08-03T22:17:55.384Z,38.63
2022-08-03T22:20:19.563Z,37.90
2022-08-03T22:22:55.441Z,38.44
2022-08-03T22:25:28.068Z,39.17
2022-08-03T22:27:55.838Z,38.76
2022-08-03T22:30:23.267Z,38.83
2022-08-03T22:32:53.837Z,38.74
2022-08-03T22:35:23.726Z,38.78
2022-08-03T22:37:54.117Z,39.19
2022-08-03T22:40:21.698Z,39.00
2022-08-03T22:42:52.346Z,38.75
2022-08-03T22:46:05.992Z,39.26
2022-08-03T22:48:08.371Z,39.74
2022-08-03T22:50:35.950Z,38.87
2022-08-03T22:53:03.397Z,38.94
2022-08-03T22:55:31.245Z,38.76
2022-08-03T22:58:00.046Z,39.87
2022-08-03T23:00:27.411Z,39.01
2022-08-03T23:02:57.054Z,38.78
2022-08-03T23:06:00.547Z,38.13
2022-08-03T23:08:18.436Z,38.55
2022-08-03T23:10:47.708Z,38.77
2022-08-03T23:13:17.309Z,39.20
2022-08-03T23:15:49.907Z,38.22
2022-08-03T23:18:19.294Z,39.20
2022-08-03T23:20:51.763Z,38.89
2022-08-03T23:23:20.633Z,39.25
2022-08-03T23:25:50.743Z,39.33
2022-08-03T23:28:19.634Z,38.98
2022-08-03T23:30:50.105Z,38.55
2022-08-03T23:33:18.185Z,37.90
2022-08-03T23:36:29.006Z,38.75
2022-08-03T23:38:36.461Z,38.95
2022-08-03T23:41:04.940Z,37.99
2022-08-03T23:43:50.831Z,37.94
2022-08-03T23:46:22.040Z,38.45
2022-08-03T23:48:50.574Z,37.79
2022-08-03T23:51:28.431Z,38.21
2022-08-03T23:54:03.678Z,37.64
2022-08-03T23:56:38.505Z,37.86
2022-08-03T23:59:21.858Z,37.81
